Terminal Aerodrome Forecast
Issued by NWS Sioux Falls, SD

Home | Current Version | Previous Version | Text Only | Print | Product List | Glossary On
Versions: 1 2 3 4 5 6 7 8 9 10 11 12 13 14 15 16
000
FTUS43 KFSD 230522
TAFSUX
TAF
KSUX 230522Z 2306/2406 VRB03KT P6SM OVC012
      TEMPO 2306/2308 SCT012 OVC025
     FM230800 VRB03KT 4SM BR OVC007
      TEMPO 2309/2312 1SM BR BKN004
     FM231300 19006KT P6SM SCT250
     FM231800 17006KT P6SM SKC=

USA.gov is the U.S. government's official web portal to all federal, state and local government web resources and services.